• Join FlightAware (Why Join?)
  • Login
  • US Flag 
04:18PM EDT


 

Airport Tracker/Info


-or-


 

Live Flight TrackerFlight Track Log ✈ SAS541 ✈ 02-Aug-2013 ✈ EKCH / CPH - EGCC / MAN

Flight Track Log - Related Links

Times and Time Zones

All times are in EDT time to prevent confusion due to time zone crossing. See the SAS541 flight status page for this flight to view local times or setup timezone preferences in your user account.

Time Position Orientation Groundspeed Altitude Reporting Facility
EDT Latitude Longitude Course Direction KTS MPH feet Rate Location/Type
11:44AM 55.5574 11.9604 262° West  Level Estimated
11:45AM 55.5417 11.7868 261° West  Level Estimated
11:46AM 55.5257 11.6134 261° West  Level Estimated
11:47AM 55.5095 11.4401 261° West  Level Estimated
11:48AM 55.4930 11.2670 261° West  Level Estimated
11:49AM 55.4763 11.0940 260° West  Level Estimated
11:50AM 55.4593 10.9211 260° West  Level Estimated
11:51AM 55.4421 10.7484 260° West  Level Estimated
11:52AM 55.4247 10.5759 260° West  Level Estimated
11:53AM 55.4070 10.4035 260° West  Level Estimated
11:54AM 55.3891 10.2313 260° West  Level Estimated
11:55AM 55.3709 10.0592 260° West  Level Estimated
11:56AM 55.3525 9.8873 259° West  Level Estimated
11:57AM 55.3338 9.7155 259° West  Level Estimated
11:58AM 55.3149 9.5439 259° West  Level Estimated
11:59AM 55.2958 9.3725 259° West  Level Estimated
12:00PM 55.2764 9.2012 259° West  Level Estimated
12:01PM 55.2568 9.0301 259° West  Level Estimated
12:02PM 55.2369 8.8592 259° West  Level Estimated
12:03PM 55.2169 8.6885 258° West  Level Estimated
12:04PM 55.1965 8.5179 258° West  Level Estimated
12:05PM 55.1760 8.3475 258° West  Level Estimated
12:06PM 55.1552 8.1772 258° West  Level Estimated
12:07PM 55.1341 8.0072 258° West  Level Estimated
12:08PM 55.1128 7.8373 258° West  Level Estimated
12:09PM 55.0913 7.6676 258° West  Level Estimated
12:10PM 55.0696 7.4981 257° West  Level Estimated
12:11PM 55.0476 7.3288 257° West  Level Estimated
12:12PM 55.0254 7.1597 257° West  Level Estimated
12:12PM 55.1286 6.9424 257° West 1 1 38,000  Level FlightAware UK
12:13PM 55.0029 6.9907 257° West  Level Estimated
12:13PM 55.1148 6.8508 255° West 1 1 38,000  Level FlightAware UK
12:13PM 55.0996 6.7596 254° West 1 1 38,000  Level FlightAware UK
12:14PM 55.0851 6.6675 255° West 1 1 38,000  Level FlightAware UK
12:14PM 55.0689 6.5773 253° West 1 1 38,000  Level FlightAware UK
12:15PM 55.0540 6.4856 254° West 1 1 38,000  Level FlightAware UK
12:15PM 55.0386 6.3944 254° West 1 1 38,000  Level FlightAware UK
12:16PM 55.0166 6.2685 253° West 1 1 38,000  Level FlightAware UK
12:18PM 54.9705 6.0010 253° West 456 525 38,000  Level FlightAware UK
12:18PM 54.9503 5.8773 254° West 454 522 38,000  Level FlightAware UK
12:19PM 54.9316 5.7733 253° West 1 1 38,000  Level FlightAware UK
12:19PM 54.9159 5.6883 252° West 448 516 38,000  Level FlightAware UK
12:21PM 54.8634 5.4016 252° West 446 513 38,000  Level FlightAware UK
12:22PM 54.8488 5.3169 253° West 444 511 38,000  Level FlightAware UK
12:22PM 54.8298 5.2170 252° West 444 511 38,000  Level FlightAware UK
12:23PM 54.8151 5.1325 253° West 444 511 38,000  Level FlightAware UK
12:24PM 54.7524 4.9336 241° Southwest 448 516 38,000  Level FlightAware UK
12:25PM 54.7142 4.8292 238° Southwest 456 525 38,000  Level FlightAware UK
12:26PM 54.6406 4.5706 244° Southwest 464 534 38,000  Level FlightAware UK
12:28PM 54.5898 4.3085 252° West 464 534 38,000  Level FlightAware UK
12:28PM 54.5796 4.2172 259° West 462 532 38,000  Level FlightAware UK
12:29PM 54.5671 4.1281 256° West 458 527 38,000  Level FlightAware UK
12:29PM 54.5515 4.0423 253° West 454 522 38,000  Level FlightAware UK
12:30PM 54.5327 3.9401 252° West 454 522 38,000  Level FlightAware UK
12:30PM 54.5171 3.8557 252° West 452 520 38,000  Level FlightAware UK
12:31PM 54.5024 3.7714 253° West 448 516 38,000  Level FlightAware UK
12:31PM 54.4842 3.6724 252° West 440 506 38,000  Level FlightAware UK
12:32PM 54.4541 3.5077 253° West 438 504 38,000  Level FlightAware UK
12:33PM 54.4302 3.3776 253° West 434 499 38,000  Level FlightAware UK
12:34PM 54.4122 3.2797 253° West 438 504 38,000  Level FlightAware UK
12:35PM 54.3903 3.1638 252° West 442 509 38,000  Level FlightAware UK
12:35PM 54.3739 3.0782 252° West 448 516 38,000  Level FlightAware UK
12:36PM 54.3577 2.9919 252° West 456 525 38,000  Level FlightAware UK
12:36PM 54.3382 2.8883 252° West 462 532 38,000  Level FlightAware UK
12:37PM 54.3182 2.7833 252° West 468 539 38,000  Level FlightAware UK
12:37PM 54.2979 2.6781 252° West 468 539 38,000  Level FlightAware UK
12:38PM 54.2811 2.5904 252° West 466 536 38,000  Level FlightAware UK
12:38PM 54.2643 2.5033 252° West 462 532 38,000  Level FlightAware UK
12:39PM 54.2476 2.4174 252° West 456 525 38,000  Level FlightAware UK
12:39PM 54.2311 2.3332 251° West 454 522 38,000  Level FlightAware UK
12:40PM 54.2114 2.2337 251° West 450 518 38,000  Level FlightAware UK
12:40PM 54.1944 2.1491 251° West 450 518 38,000  Level FlightAware UK
12:41PM 54.1747 2.0492 251° West 446 513 38,000  Level FlightAware UK
12:42PM 54.1581 1.9667 251° West 446 513 38,000  Level FlightAware UK
12:42PM 54.1383 1.8681 251° West 446 513 38,000  Level FlightAware UK
12:43PM 54.1153 1.7534 251° West 450 518 38,000  Level FlightAware UK
12:43PM 54.0985 1.6704 251° West 452 520 38,000  Level FlightAware UK
12:44PM 54.0680 1.5201 251° West 452 520 38,000  Level FlightAware UK
12:45PM 54.0506 1.4358 251° West 452 520 38,000  Level FlightAware UK
12:45PM 54.0264 1.3181 251° West 454 522 38,000  Level FlightAware UK
12:46PM 54.0019 1.1993 251° West 460 529 38,000  Level FlightAware UK
12:47PM 53.9774 1.0809 251° West 462 532 38,000  Level FlightAware UK
12:48PM 53.9523 0.9619 250° West 462 532 38,000  Level FlightAware UK
12:48PM 53.9344 0.8767 250° West 462 532 38,000  Level FlightAware UK
12:49PM 53.9092 0.7574 250° West 460 529 38,000 -540 Level FlightAware UK
12:50PM 53.8362 0.5736 236° Southwest 458 527 37,000 -900 Descending FlightAware UK
12:51PM 53.7865 0.4960 223° Southwest 444 511 36,300 -1,080 Descending FlightAware UK
12:52PM 53.6784 0.3290 222° Southwest 436 502 34,600 -1,320 Descending FlightAware UK
12:53PM 53.6429 0.2650 227° Southwest 424 488 33,400 -2,040 Descending FlightAware UK
12:54PM 53.6255 0.1605 254° West 412 474 32,000 -2,040 Descending FlightAware UK
12:54PM 53.6128 0.0230 261° West 378 435 30,200 -1,740 Descending FlightAware UK
12:56PM 53.5843 -0.2136 259° West 380 437 27,800 -1,380 Descending FlightAware UK
12:57PM 53.5726 -0.3050 258° West 376 433 27,200 -1,020 Descending FlightAware UK
12:57PM 53.5629 -0.3797 258° West 372 428 26,700 -1,020 Descending FlightAware UK
12:58PM 53.5568 -0.4540 262° West 366 421 26,200 -1,680 Descending FlightAware UK
12:58PM 53.5632 -0.5470 277° West 358 412 24,900 -2,400 Descending FlightAware UK
12:59PM 53.5697 -0.6251 278° West 360 414 23,600 -2,640 Descending FlightAware UK
01:00PM 53.5804 -0.7513 278° West 366 421 21,500 -2,640 Descending FlightAware UK
01:00PM 53.5871 -0.8311 278° West 368 423 20,200 -2,640 Descending FlightAware UK
01:01PM 53.5962 -0.9425 278° West 360 414 18,400 -2,640 Descending FlightAware UK
01:01PM 53.6023 -1.0211 278° West 360 414 17,100 -2,280 Descending FlightAware UK
01:02PM 53.6076 -1.1129 276° West 346 398 15,900 -1,620 Descending FlightAware UK
01:03PM 53.6129 -1.2390 274° West 310 357 14,700 -1,500 Descending FlightAware UK
01:03PM 53.6165 -1.3065 275° West 310 357 13,800 -1,920 Descending FlightAware UK
01:04PM 53.6294 -1.3852 286° West 304 350 12,600 -2,100 Descending FlightAware UK
01:04PM 53.6400 -1.4515 285° West 308 354 11,500 -2,220 Descending FlightAware UK
01:05PM 53.6507 -1.5176 285° West 306 352 10,400 -1,560 Descending FlightAware UK
01:06PM 53.6812 -1.7064 285° West 278 320 8,500 -900 Descending FlightAware UK
01:08PM 53.6922 -1.8577 277° West 290 334 8,000 -300 Descending FlightAware UK
01:08PM 53.6986 -1.9207 280° West 284 327 8,000  Level FlightAware UK
01:09PM 53.7110 -2.0068 284° West 284 327 8,000 -540 Level FlightAware UK
01:09PM 53.6903 -2.0699 241° Southwest 254 292 7,300 -660 Descending FlightAware UK
01:11PM 53.6042 -1.9972 153° Southeast 242 278 6,600 -600 Descending FlightAware UK
01:12PM 53.5465 -1.9658 162° South 208 239 5,700 -900 Descending FlightAware UK
01:13PM 53.5118 -1.9881 201° Southwest 216 249 5,000 -1,140 Descending FlightAware UK
01:13PM 53.4869 -2.0044 201° Southwest 206 237 4,400 -1,140 Descending FlightAware UK
01:14PM 53.4498 -2.0764 229° Southwest 206 237 3,200 -1,080 Descending FlightAware UK
01:15PM 53.4268 -2.1229 230° Southwest 204 235 2,500 -960 Descending FlightAware UK
01:16PM 53.4066 -2.1650 231° Southwest 178 205 1,900 -900 Descending FlightAware UK
01:17PM 53.3887 -2.2025 231° Southwest 146 168 1,200 -720 Descending FlightAware UK
01:17PM 53.3783 -2.2244 231° Southwest 146 168 1,000 -600 Descending FlightAware UK
01:18PM 53.3657 -2.2500 231° Southwest 144 166 600 -720 Descending FlightAware UK